createdAt,value
2019-01-31T12:46:42.388Z,61.06
2019-01-31T12:47:42.366Z,61.45
2019-01-31T12:48:42.351Z,58.62
2019-01-31T12:49:42.508Z,58.55
2019-01-31T12:50:42.345Z,58.65
2019-01-31T12:51:42.404Z,58.68
2019-01-31T12:52:42.338Z,55.96
2019-01-31T12:53:42.356Z,54.99
2019-01-31T12:54:42.356Z,55.51
2019-01-31T12:56:54.274Z,55.04
2019-01-31T12:57:54.259Z,54.28
2019-01-31T12:58:54.249Z,53.50
2019-01-31T12:59:54.261Z,51.96
2019-01-31T13:00:54.252Z,51.86
2019-01-31T13:01:54.312Z,52.64
2019-01-31T13:02:54.255Z,50.81
2019-01-31T13:03:54.271Z,51.32
2019-01-31T13:04:54.271Z,50.93
2019-01-31T13:05:54.276Z,51.05
2019-01-31T13:06:54.254Z,49.29
2019-01-31T13:07:54.268Z,49.46
2019-01-31T13:08:54.458Z,49.87
2019-01-31T13:09:54.276Z,49.19
2019-01-31T13:10:54.266Z,48.30
2019-01-31T13:11:54.272Z,48.33
2019-01-31T13:12:54.280Z,47.91
2019-01-31T13:13:54.276Z,47.42
2019-01-31T13:14:54.273Z,47.74
2019-01-31T13:15:54.270Z,48.05
2019-01-31T13:16:54.292Z,45.62
2019-01-31T13:17:54.325Z,45.74
2019-01-31T13:18:54.273Z,45.35
2019-01-31T13:19:54.270Z,43.48
2019-01-31T13:20:54.287Z,44.66
2019-01-31T13:21:54.308Z,44.95
2019-01-31T13:22:54.281Z,43.30
2019-01-31T13:23:54.299Z,39.79
2019-01-31T13:24:54.274Z,38.71
2019-01-31T13:25:54.305Z,38.42
2019-01-31T13:26:54.306Z,38.43
2019-01-31T13:27:54.318Z,38.73
2019-01-31T13:28:54.321Z,37.95
2019-01-31T13:29:54.320Z,38.16
2019-01-31T13:30:54.326Z,38.75
2019-01-31T13:31:54.312Z,38.65
2019-01-31T13:32:54.314Z,38.45
2019-01-31T13:33:54.327Z,36.90
2019-01-31T13:34:54.337Z,36.21
2019-01-31T13:35:54.338Z,35.52
2019-01-31T13:36:54.337Z,35.33
2019-01-31T13:37:54.375Z,34.15
2019-01-31T13:38:54.338Z,33.64
2019-01-31T13:39:54.347Z,33.64
2019-01-31T13:40:54.365Z,34.23
2019-01-31T13:41:54.342Z,34.23
2019-01-31T13:42:54.371Z,34.82
2019-01-31T13:43:57.764Z,35.71
2019-01-31T13:44:54.382Z,35.31
2019-01-31T13:45:54.369Z,34.72
2019-01-31T13:46:54.377Z,34.44
2019-01-31T13:47:54.395Z,35.83
2019-01-31T13:48:54.392Z,35.73
2019-01-31T13:49:54.391Z,34.72
2019-01-31T13:50:54.408Z,35.14
2019-01-31T13:51:54.411Z,34.72
2019-01-31T13:52:56.341Z,35.43
2019-01-31T13:53:54.415Z,36.40
2019-01-31T13:54:54.419Z,34.03
2019-01-31T13:55:54.430Z,33.56
2019-01-31T13:56:54.409Z,33.58
2019-01-31T13:57:54.443Z,32.59
2019-01-31T13:58:54.427Z,32.29
2019-01-31T13:59:54.557Z,32.78
2019-01-31T14:00:54.449Z,33.28
2019-01-31T14:01:54.444Z,33.79
2019-01-31T14:02:54.442Z,35.07
2019-01-31T14:03:54.455Z,32.68
2019-01-31T14:04:54.447Z,31.50
2019-01-31T14:05:54.445Z,30.91
2019-01-31T14:06:54.452Z,30.32
2019-01-31T14:07:54.479Z,29.21
2019-01-31T14:08:54.462Z,29.03
2019-01-31T14:09:54.482Z,28.94
2019-01-31T14:10:54.518Z,28.75
2019-01-31T14:11:54.541Z,29.72
2019-01-31T14:12:54.488Z,29.82
2019-01-31T14:13:54.499Z,29.33
2019-01-31T14:14:54.511Z,30.19
2019-01-31T14:15:54.518Z,30.20
2019-01-31T14:16:54.554Z,30.29
2019-01-31T14:17:54.562Z,30.91
2019-01-31T14:18:54.517Z,30.69
2019-01-31T14:19:54.536Z,30.00
2019-01-31T14:20:54.534Z,30.02
2019-01-31T14:21:54.548Z,30.81
2019-01-31T14:22:54.552Z,30.11
2019-01-31T14:23:54.557Z,31.01
2019-01-31T14:24:54.590Z,30.02
2019-01-31T14:25:54.560Z,29.64
2019-01-31T14:26:54.542Z,30.33
2019-01-31T14:27:54.557Z,29.33
2019-01-31T14:28:54.570Z,29.32
2019-01-31T14:29:54.580Z,29.79
2019-01-31T14:30:54.631Z,30.00
2019-01-31T14:31:54.590Z,30.79
2019-01-31T14:32:54.600Z,30.91
2019-01-31T14:33:54.587Z,31.22
2019-01-31T14:34:54.631Z,31.50
2019-01-31T14:35:54.608Z,30.52
2019-01-31T14:36:54.620Z,29.83
2019-01-31T14:37:54.622Z,30.21
2019-01-31T14:38:54.621Z,30.04
2019-01-31T14:39:54.633Z,29.65
2019-01-31T14:40:54.610Z,29.47
2019-01-31T14:41:54.636Z,29.17
2019-01-31T14:42:54.623Z,29.09
2019-01-31T14:43:54.643Z,29.09
2019-01-31T14:44:54.633Z,29.78
2019-01-31T14:45:54.636Z,30.18
2019-01-31T14:46:54.663Z,30.37
2019-01-31T14:47:55.820Z,30.08
2019-01-31T14:48:54.661Z,30.18
2019-01-31T14:49:54.661Z,29.39
2019-01-31T14:50:54.656Z,29.69
2019-01-31T14:51:54.674Z,28.80
2019-01-31T14:52:56.876Z,29.20
2019-01-31T14:53:54.684Z,28.90
2019-01-31T14:54:54.702Z,29.39
2019-01-31T14:55:55.532Z,28.69
2019-01-31T14:56:54.706Z,29.17
2019-01-31T14:57:54.723Z,29.27
2019-01-31T14:58:54.712Z,29.25
2019-01-31T14:59:54.737Z,29.28
2019-01-31T15:00:54.714Z,28.78
2019-01-31T15:01:54.717Z,29.47
2019-01-31T15:02:54.759Z,30.04
2019-01-31T15:03:54.753Z,30.71
2019-01-31T15:04:54.761Z,31.20
2019-01-31T15:05:54.758Z,31.10
2019-01-31T15:06:54.778Z,31.12
2019-01-31T15:07:54.758Z,31.22
2019-01-31T15:08:54.765Z,31.70
2019-01-31T15:09:54.775Z,31.01
2019-01-31T15:10:54.789Z,30.81
2019-01-31T15:11:54.770Z,30.51
2019-01-31T15:12:54.793Z,30.69
2019-01-31T15:13:54.775Z,31.09
2019-01-31T15:14:54.798Z,30.40
2019-01-31T15:15:54.815Z,30.69
2019-01-31T15:16:54.807Z,30.88
2019-01-31T15:17:54.830Z,31.75
2019-01-31T15:18:54.841Z,31.37
2019-01-31T15:19:54.871Z,31.57
2019-01-31T15:20:54.868Z,31.86
2019-01-31T15:21:54.831Z,31.26
2019-01-31T15:22:54.829Z,31.96
2019-01-31T15:23:54.849Z,31.45
2019-01-31T15:24:54.856Z,31.65
2019-01-31T15:25:54.846Z,30.98
2019-01-31T15:26:54.864Z,31.17
2019-01-31T15:27:54.868Z,31.67
2019-01-31T15:28:54.864Z,30.99
2019-01-31T15:29:54.876Z,30.88
2019-01-31T15:30:54.855Z,30.86
2019-01-31T15:31:54.867Z,31.63
2019-01-31T15:32:54.892Z,31.14
2019-01-31T15:33:54.881Z,32.21
2019-01-31T15:34:54.890Z,32.20
2019-01-31T15:35:54.903Z,32.60
2019-01-31T15:36:54.908Z,32.51
2019-01-31T15:37:54.918Z,32.42
2019-01-31T15:38:54.951Z,33.79
2019-01-31T15:39:54.900Z,33.29
2019-01-31T15:40:54.965Z,32.92
2019-01-31T15:41:54.932Z,32.31
2019-01-31T15:42:54.936Z,32.59
2019-01-31T15:43:54.940Z,33.05
2019-01-31T15:44:54.938Z,34.33
2019-01-31T15:45:54.938Z,34.13
2019-01-31T15:46:54.931Z,34.82
2019-01-31T15:47:54.938Z,35.02
2019-01-31T15:48:54.956Z,35.02
2019-01-31T15:49:55.001Z,35.02
2019-01-31T15:50:55.001Z,35.31
2019-01-31T15:51:54.966Z,36.00
2019-01-31T15:52:54.966Z,36.00
2019-01-31T15:53:54.968Z,34.82
2019-01-31T15:54:54.979Z,34.72
2019-01-31T15:55:54.971Z,35.61
2019-01-31T15:56:54.990Z,36.00
2019-01-31T15:57:54.980Z,36.49
2019-01-31T15:58:55.005Z,36.40
2019-01-31T15:59:54.979Z,36.49
2019-01-31T16:00:54.993Z,36.49
2019-01-31T16:01:54.982Z,36.40
2019-01-31T16:02:54.978Z,36.69
2019-01-31T16:03:55.045Z,35.59
2019-01-31T16:04:55.000Z,35.08
2019-01-31T16:05:55.001Z,35.67
2019-01-31T16:06:54.993Z,35.87
2019-01-31T16:07:55.015Z,36.34
2019-01-31T16:08:55.039Z,36.83
2019-01-31T16:09:55.036Z,37.44
2019-01-31T16:10:55.025Z,36.54
2019-01-31T16:11:55.065Z,37.03
2019-01-31T16:12:55.056Z,37.60
2019-01-31T16:13:55.092Z,37.82
2019-01-31T16:14:55.256Z,37.52
2019-01-31T16:15:55.050Z,37.50
2019-01-31T16:16:55.030Z,37.70
2019-01-31T16:17:55.052Z,38.09
2019-01-31T16:18:55.059Z,38.19
2019-01-31T16:19:55.075Z,37.60
2019-01-31T16:20:55.047Z,37.80
2019-01-31T16:21:55.067Z,37.60
2019-01-31T16:22:55.118Z,38.09
2019-01-31T16:23:55.064Z,38.11
2019-01-31T16:24:55.146Z,37.99
2019-01-31T16:25:55.062Z,38.48
2019-01-31T16:26:55.082Z,38.68
2019-01-31T16:27:55.066Z,38.68
2019-01-31T16:28:55.066Z,37.99
2019-01-31T16:29:55.094Z,37.99
2019-01-31T16:30:55.073Z,38.39
2019-01-31T16:31:55.084Z,38.58
2019-01-31T16:32:55.085Z,38.68
2019-01-31T16:33:55.125Z,38.58
2019-01-31T16:34:55.072Z,38.58
2019-01-31T16:35:55.106Z,39.47
2019-01-31T16:36:55.101Z,38.70
2019-01-31T16:37:55.115Z,38.70
2019-01-31T16:38:55.113Z,38.80
2019-01-31T16:39:55.119Z,39.09
2019-01-31T16:40:55.092Z,40.27
2019-01-31T16:41:55.119Z,40.56
2019-01-31T16:42:55.115Z,41.14
2019-01-31T16:43:55.123Z,41.03
2019-01-31T16:45:06.133Z,41.14
2019-01-31T16:45:55.131Z,41.63
2019-01-31T16:46:55.195Z,41.63
2019-01-31T16:47:55.119Z,41.43
2019-01-31T16:48:55.137Z,42.32
2019-01-31T16:49:55.133Z,42.61
2019-01-31T16:50:55.155Z,42.32
2019-01-31T16:51:55.141Z,41.92
2019-01-31T16:52:55.131Z,42.02
2019-01-31T16:53:55.155Z,42.71
2019-01-31T16:54:55.152Z,41.82
2019-01-31T16:55:55.339Z,42.41
2019-01-31T16:56:55.164Z,43.69
2019-01-31T16:57:55.152Z,44.47
2019-01-31T16:58:55.135Z,44.57
2019-01-31T16:59:55.170Z,45.06
2019-01-31T17:00:55.160Z,44.47
2019-01-31T17:01:55.203Z,44.57
2019-01-31T17:02:55.165Z,44.96
2019-01-31T17:03:55.219Z,46.04
2019-01-31T17:04:55.185Z,46.53
2019-01-31T17:05:55.167Z,47.20
2019-01-31T17:06:55.190Z,47.89
2019-01-31T17:07:55.222Z,48.28
2019-01-31T17:08:55.193Z,48.47
2019-01-31T17:09:55.180Z,48.67
2019-01-31T17:10:55.186Z,48.77
2019-01-31T17:11:55.195Z,47.49
2019-01-31T17:12:55.188Z,47.49
2019-01-31T17:13:55.207Z,49.07
2019-01-31T17:14:55.201Z,49.95
2019-01-31T17:15:55.244Z,50.24
2019-01-31T17:16:55.218Z,51.03
2019-01-31T17:17:55.244Z,51.81
2019-01-31T17:18:55.202Z,51.22
2019-01-31T17:19:55.203Z,51.22
2019-01-31T17:20:55.254Z,51.22
2019-01-31T17:21:55.196Z,51.42
2019-01-31T17:22:55.211Z,51.12
2019-01-31T17:23:55.204Z,50.54
2019-01-31T17:24:55.197Z,51.22
2019-01-31T17:25:55.233Z,50.44
2019-01-31T17:26:55.233Z,50.83
2019-01-31T17:27:55.237Z,51.22
2019-01-31T17:28:55.278Z,51.42
2019-01-31T17:29:55.235Z,51.39
2019-01-31T17:30:55.242Z,52.37
2019-01-31T17:31:55.281Z,51.69
2019-01-31T17:32:55.230Z,52.18
2019-01-31T17:33:55.286Z,52.76
2019-01-31T17:34:55.225Z,53.65
2019-01-31T17:35:55.249Z,53.94
2019-01-31T17:36:55.263Z,54.14
2019-01-31T17:37:55.297Z,54.93
2019-01-31T17:38:55.249Z,55.02
2019-01-31T17:39:55.240Z,53.94
2019-01-31T17:40:55.261Z,54.24
2019-01-31T17:41:55.259Z,54.63
2019-01-31T17:42:55.246Z,54.60
2019-01-31T17:43:55.254Z,55.68
2019-01-31T17:44:55.271Z,56.10
2019-01-31T17:45:55.258Z,55.81
2019-01-31T17:46:55.250Z,56.10
2019-01-31T17:47:55.256Z,56.59
2019-01-31T17:48:55.263Z,56.40
2019-01-31T17:49:55.274Z,57.08
2019-01-31T17:50:55.261Z,56.92
2019-01-31T17:51:55.264Z,57.11
2019-01-31T17:52:55.286Z,56.52
2019-01-31T17:53:55.287Z,56.01
2019-01-31T17:54:56.071Z,56.01
2019-01-31T17:55:55.272Z,55.91
2019-01-31T17:56:55.295Z,55.54
2019-01-31T17:57:55.289Z,55.71
2019-01-31T17:58:55.282Z,56.49
2019-01-31T17:59:55.292Z,56.69
2019-01-31T18:00:55.294Z,57.28
2019-01-31T18:01:55.553Z,57.28
2019-01-31T18:02:55.304Z,57.28
2019-01-31T18:03:55.274Z,57.48
2019-01-31T18:04:55.294Z,57.57
2019-01-31T18:05:55.298Z,57.48
2019-01-31T18:06:55.311Z,57.15
2019-01-31T18:07:55.317Z,56.96
2019-01-31T18:08:55.298Z,56.96
2019-01-31T18:09:55.314Z,56.57
2019-01-31T18:10:55.318Z,56.17
2019-01-31T18:11:55.346Z,56.17
2019-01-31T18:12:55.311Z,55.98
2019-01-31T18:13:55.315Z,55.39
2019-01-31T18:14:55.315Z,55.29
2019-01-31T18:15:55.298Z,55.10
2019-01-31T18:16:55.325Z,54.60
2019-01-31T18:17:55.315Z,55.00
2019-01-31T18:18:55.325Z,54.90
2019-01-31T18:19:55.332Z,55.19
2019-01-31T18:20:55.369Z,54.90
2019-01-31T18:21:55.342Z,55.10
2019-01-31T18:22:55.366Z,55.68
2019-01-31T18:23:55.381Z,55.10
2019-01-31T18:24:55.338Z,55.39
2019-01-31T18:25:55.356Z,55.00
2019-01-31T18:26:55.338Z,54.60
2019-01-31T18:27:55.347Z,54.11
2019-01-31T18:28:55.347Z,54.50
2019-01-31T18:29:55.355Z,54.31
2019-01-31T18:30:55.352Z,54.60
2019-01-31T18:31:55.354Z,54.31
2019-01-31T18:32:55.341Z,54.11
2019-01-31T18:33:55.342Z,53.92
2019-01-31T18:34:55.341Z,53.72
2019-01-31T18:35:55.403Z,53.72
2019-01-31T18:36:55.346Z,53.33
2019-01-31T18:37:55.352Z,52.25
2019-01-31T18:38:57.612Z,52.42
2019-01-31T18:39:55.409Z,52.06
2019-01-31T18:40:55.362Z,52.25
2019-01-31T18:41:55.370Z,52.45
2019-01-31T18:42:55.466Z,53.72
2019-01-31T18:43:55.366Z,53.72
2019-01-31T18:44:55.377Z,53.72
2019-01-31T18:45:55.418Z,52.64
2019-01-31T18:46:55.381Z,53.92
2019-01-31T18:47:55.392Z,54.02
2019-01-31T18:48:55.363Z,53.92
2019-01-31T18:49:55.367Z,54.21
2019-01-31T18:50:55.395Z,54.31
2019-01-31T18:51:55.374Z,54.50
2019-01-31T18:52:55.390Z,53.82
2019-01-31T18:53:55.388Z,53.82
2019-01-31T18:54:55.400Z,53.33
2019-01-31T18:55:55.402Z,52.74
2019-01-31T18:56:55.396Z,54.02
2019-01-31T18:57:55.412Z,53.72
2019-01-31T18:58:55.374Z,53.30
2019-01-31T18:59:55.501Z,53.89
2019-01-31T19:00:55.410Z,53.40
2019-01-31T19:01:55.446Z,53.69
2019-01-31T19:02:55.410Z,53.20
2019-01-31T19:03:55.418Z,52.94
2019-01-31T19:04:55.414Z,53.03
2019-01-31T19:05:55.445Z,53.11
2019-01-31T19:06:55.395Z,52.81
2019-01-31T19:07:55.405Z,52.55
2019-01-31T19:08:55.404Z,51.54
2019-01-31T19:09:55.407Z,51.15
2019-01-31T19:10:55.401Z,51.34
2019-01-31T19:11:55.423Z,51.25
2019-01-31T19:12:55.417Z,51.05
2019-01-31T19:13:55.408Z,50.46
2019-01-31T19:14:55.415Z,50.76
2019-01-31T19:16:04.798Z,51.05
2019-01-31T19:16:55.422Z,50.17
2019-01-31T19:18:05.462Z,50.37
2019-01-31T19:18:55.428Z,49.85
2019-01-31T19:19:55.442Z,50.04
2019-01-31T19:20:55.413Z,50.15
2019-01-31T19:21:55.424Z,49.75
2019-01-31T19:22:55.439Z,49.77
2019-01-31T19:23:55.431Z,47.33
2019-01-31T19:24:55.424Z,47.33
2019-01-31T19:25:55.435Z,47.52
2019-01-31T19:26:55.439Z,47.33
2019-01-31T19:27:55.457Z,48.41
2019-01-31T19:28:55.444Z,48.21
2019-01-31T19:29:55.425Z,48.68
2019-01-31T19:30:55.441Z,49.07
2019-01-31T19:31:55.481Z,49.16
2019-01-31T19:32:55.467Z,49.16
2019-01-31T19:33:55.440Z,49.85
2019-01-31T19:34:55.465Z,49.75
2019-01-31T19:35:55.450Z,49.26
2019-01-31T19:36:55.461Z,49.65
2019-01-31T19:38:02.246Z,49.36
2019-01-31T19:38:55.470Z,49.65
2019-01-31T19:39:55.449Z,49.85
2019-01-31T19:40:55.472Z,50.15
2019-01-31T19:41:55.472Z,50.15
2019-01-31T19:42:55.479Z,51.03
2019-01-31T19:43:55.478Z,49.95
2019-01-31T19:44:55.458Z,51.12
2019-01-31T19:45:55.475Z,50.93
2019-01-31T19:46:55.482Z,51.03
2019-01-31T19:47:55.460Z,50.22
2019-01-31T19:48:55.471Z,51.22
2019-01-31T19:49:55.485Z,51.20
2019-01-31T19:50:55.483Z,49.75
2019-01-31T19:51:55.487Z,49.33
2019-01-31T19:52:55.474Z,49.43
2019-01-31T19:53:55.489Z,48.55
2019-01-31T19:54:55.487Z,48.46
2019-01-31T19:55:55.466Z,49.04
2019-01-31T19:56:55.473Z,49.04
2019-01-31T19:57:55.489Z,48.94
2019-01-31T19:58:55.497Z,49.63
2019-01-31T19:59:55.464Z,49.73
2019-01-31T20:00:55.484Z,50.12
2019-01-31T20:01:55.475Z,49.63
2019-01-31T20:02:55.495Z,49.53
2019-01-31T20:03:55.532Z,50.22
2019-01-31T20:04:55.511Z,50.22
2019-01-31T20:05:55.502Z,49.33
2019-01-31T20:06:55.483Z,50.12
2019-01-31T20:07:55.488Z,50.51
2019-01-31T20:08:55.502Z,51.29
2019-01-31T20:09:55.497Z,50.22
2019-01-31T20:10:55.498Z,50.42
2019-01-31T20:11:55.497Z,49.21
2019-01-31T20:12:55.498Z,49.11
2019-01-31T20:13:55.493Z,48.43
2019-01-31T20:14:55.502Z,50.20
2019-01-31T20:15:55.487Z,50.20
2019-01-31T20:16:55.550Z,51.27
2019-01-31T20:17:55.519Z,50.98
2019-01-31T20:18:55.491Z,52.25
2019-01-31T20:19:55.504Z,52.73
2019-01-31T20:20:55.505Z,53.62
2019-01-31T20:21:55.594Z,53.72
2019-01-31T20:22:55.563Z,53.39
2019-01-31T20:23:55.515Z,53.62
2019-01-31T20:24:55.522Z,54.01
2019-01-31T20:25:55.507Z,53.81
2019-01-31T20:26:55.530Z,53.98
2019-01-31T20:27:55.521Z,54.28
2019-01-31T20:28:55.519Z,55.26
2019-01-31T20:29:55.527Z,55.26
2019-01-31T20:30:55.523Z,55.74
2019-01-31T20:31:55.525Z,54.57
2019-01-31T20:32:55.521Z,54.86
2019-01-31T20:33:55.525Z,55.65
2019-01-31T20:34:55.524Z,55.94
2019-01-31T20:35:55.525Z,55.84
2019-01-31T20:36:55.511Z,55.16
2019-01-31T20:37:55.520Z,55.55
2019-01-31T20:38:55.526Z,55.84
2019-01-31T20:39:55.526Z,55.74
2019-01-31T20:40:55.533Z,55.35
2019-01-31T20:41:55.523Z,55.26
2019-01-31T20:42:55.510Z,54.47
2019-01-31T20:43:55.523Z,53.98
2019-01-31T20:44:55.531Z,53.86
2019-01-31T20:45:55.517Z,52.78
2019-01-31T20:46:55.530Z,52.69
2019-01-31T20:47:55.532Z,52.78
2019-01-31T20:48:55.522Z,52.59
2019-01-31T20:49:55.517Z,51.71
2019-01-31T20:50:55.519Z,51.42
2019-01-31T20:51:55.539Z,50.24
2019-01-31T20:52:55.541Z,50.15
2019-01-31T20:53:55.538Z,50.42
2019-01-31T20:54:55.527Z,50.32
2019-01-31T20:55:55.512Z,51.00
2019-01-31T20:56:55.529Z,50.90
2019-01-31T20:57:55.527Z,53.05
2019-01-31T20:58:55.535Z,53.54
2019-01-31T20:59:55.521Z,53.74
2019-01-31T21:00:55.519Z,53.54
2019-01-31T21:01:55.534Z,53.74
2019-01-31T21:02:55.527Z,53.25
2019-01-31T21:03:55.520Z,52.86
2019-01-31T21:04:55.535Z,52.27
2019-01-31T21:05:55.525Z,52.95
2019-01-31T21:06:55.514Z,53.54
2019-01-31T21:07:55.534Z,52.44
2019-01-31T21:08:55.529Z,52.37
2019-01-31T21:09:55.548Z,50.10
2019-01-31T21:10:55.535Z,50.59
2019-01-31T21:11:55.529Z,51.17
2019-01-31T21:12:55.532Z,50.88
2019-01-31T21:13:55.527Z,50.98
2019-01-31T21:14:55.524Z,50.98
2019-01-31T21:15:55.518Z,51.46
2019-01-31T21:16:55.538Z,51.27
2019-01-31T21:17:55.531Z,50.98
2019-01-31T21:18:55.526Z,51.27
2019-01-31T21:19:55.743Z,50.68
2019-01-31T21:20:55.523Z,50.29
2019-01-31T21:21:55.506Z,49.02
2019-01-31T21:22:55.565Z,48.83
2019-01-31T21:23:55.516Z,48.44
2019-01-31T21:24:55.530Z,48.34
2019-01-31T21:25:55.531Z,48.83
2019-01-31T21:26:55.519Z,48.54
2019-01-31T21:27:55.530Z,48.44
2019-01-31T21:28:55.516Z,49.32
2019-01-31T21:29:55.515Z,49.98
2019-01-31T21:30:55.522Z,50.46
2019-01-31T21:31:55.533Z,50.16
2019-01-31T21:32:55.527Z,51.04
2019-01-31T21:33:55.535Z,51.04
2019-01-31T21:34:55.501Z,50.95
2019-01-31T21:35:55.507Z,50.95
2019-01-31T21:36:55.540Z,50.75
2019-01-31T21:37:55.528Z,51.82
2019-01-31T21:38:55.521Z,52.09
2019-01-31T21:39:55.525Z,52.80
2019-01-31T21:40:55.523Z,52.22
2019-01-31T21:41:55.510Z,52.19
2019-01-31T21:42:55.654Z,52.12
2019-01-31T21:43:55.528Z,52.19
2019-01-31T21:44:55.519Z,52.29
2019-01-31T21:45:55.530Z,52.97
2019-01-31T21:47:02.922Z,52.78
2019-01-31T21:47:55.514Z,53.27
2019-01-31T21:48:55.502Z,53.27
2019-01-31T21:49:55.513Z,53.56
2019-01-31T21:50:55.503Z,53.66
2019-01-31T21:51:55.555Z,53.95
2019-01-31T21:52:55.524Z,54.05
2019-01-31T21:53:55.532Z,54.14
2019-01-31T21:54:55.558Z,53.95
2019-01-31T21:55:55.526Z,54.34
2019-01-31T21:56:55.499Z,54.83
2019-01-31T21:57:55.551Z,55.02
2019-01-31T21:58:55.507Z,54.73
2019-01-31T21:59:55.520Z,54.73
2019-01-31T22:00:55.512Z,55.32
2019-01-31T22:01:55.523Z,54.99
2019-01-31T22:02:55.483Z,55.02
2019-01-31T22:03:55.564Z,55.38
2019-01-31T22:04:55.505Z,55.68
2019-01-31T22:05:55.522Z,55.48
2019-01-31T22:06:55.546Z,55.29
2019-01-31T22:07:55.494Z,55.58
2019-01-31T22:08:55.518Z,56.07
2019-01-31T22:09:55.506Z,56.36
2019-01-31T22:10:55.496Z,56.36
2019-01-31T22:11:55.499Z,56.56
2019-01-31T22:12:55.500Z,56.26
2019-01-31T22:13:55.486Z,56.36
2019-01-31T22:14:55.539Z,56.75
2019-01-31T22:15:55.500Z,57.04
2019-01-31T22:16:55.484Z,57.14
2019-01-31T22:17:59.733Z,57.24
2019-01-31T22:18:55.496Z,57.04
2019-01-31T22:19:55.497Z,57.82
2019-01-31T22:20:55.492Z,57.79
2019-01-31T22:21:55.477Z,57.79
2019-01-31T22:22:55.488Z,57.53
2019-01-31T22:23:55.481Z,57.63
2019-01-31T22:24:55.482Z,57.34
2019-01-31T22:25:55.490Z,57.34
2019-01-31T22:26:55.478Z,57.79
2019-01-31T22:27:55.472Z,57.31
2019-01-31T22:28:55.483Z,55.87
2019-01-31T22:29:55.489Z,55.38
2019-01-31T22:30:55.468Z,55.46
2019-01-31T22:31:55.462Z,55.46
2019-01-31T22:32:55.657Z,55.65
2019-01-31T22:33:55.481Z,55.65
2019-01-31T22:34:55.459Z,55.85
2019-01-31T22:35:55.483Z,55.55
2019-01-31T22:36:55.476Z,56.14
2019-01-31T22:37:55.470Z,56.33
2019-01-31T22:38:55.452Z,56.23
2019-01-31T22:39:55.464Z,57.01
2019-01-31T22:40:55.467Z,56.04
2019-01-31T22:41:55.504Z,55.65
2019-01-31T22:42:55.502Z,56.33
2019-01-31T22:43:55.469Z,56.62
2019-01-31T22:44:55.472Z,56.43
2019-01-31T22:45:55.509Z,56.23
2019-01-31T22:46:55.463Z,56.52
2019-01-31T22:47:55.442Z,56.62
2019-01-31T22:48:55.457Z,56.23
2019-01-31T22:49:55.449Z,55.94
2019-01-31T22:50:55.464Z,55.65
2019-01-31T22:51:55.451Z,55.65
2019-01-31T22:52:55.451Z,55.65
2019-01-31T22:53:55.444Z,55.26
2019-01-31T22:54:55.444Z,55.07
2019-01-31T22:55:55.459Z,55.94
2019-01-31T22:56:55.445Z,56.23
2019-01-31T22:57:55.449Z,56.72
2019-01-31T22:58:55.450Z,56.92
2019-01-31T22:59:55.438Z,56.60
2019-01-31T23:00:55.442Z,56.70
2019-01-31T23:01:55.478Z,56.99
2019-01-31T23:02:55.448Z,56.70
2019-01-31T23:03:55.443Z,57.37
2019-01-31T23:04:55.446Z,56.40
2019-01-31T23:05:55.445Z,56.30
2019-01-31T23:06:55.576Z,56.21
2019-01-31T23:07:55.422Z,55.72
2019-01-31T23:08:55.437Z,55.46
2019-01-31T23:09:55.461Z,55.91
2019-01-31T23:10:55.432Z,56.30
2019-01-31T23:11:55.437Z,56.89
2019-01-31T23:12:55.434Z,56.21
2019-01-31T23:13:55.413Z,56.11
2019-01-31T23:14:55.404Z,56.21
2019-01-31T23:15:55.431Z,56.60
2019-01-31T23:16:55.451Z,56.70
2019-01-31T23:17:55.422Z,57.18
2019-01-31T23:18:55.406Z,56.60
2019-01-31T23:19:55.405Z,57.18
2019-01-31T23:20:55.403Z,57.09
2019-01-31T23:21:55.414Z,57.18
2019-01-31T23:22:55.407Z,57.35
2019-01-31T23:23:55.409Z,57.57
2019-01-31T23:24:55.417Z,57.64
2019-01-31T23:25:55.390Z,57.74
2019-01-31T23:26:55.404Z,57.37
2019-01-31T23:27:55.410Z,57.84
2019-01-31T23:28:55.411Z,58.71
2019-01-31T23:29:55.381Z,58.03
2019-01-31T23:30:55.393Z,58.42
2019-01-31T23:31:55.389Z,58.61
2019-01-31T23:32:55.593Z,58.51
2019-01-31T23:33:55.397Z,58.61
2019-01-31T23:34:55.384Z,58.81
2019-01-31T23:35:55.389Z,59.00
2019-01-31T23:36:55.390Z,59.59
2019-01-31T23:37:55.384Z,59.98
2019-01-31T23:38:55.389Z,59.69
2019-01-31T23:39:55.372Z,60.08
2019-01-31T23:40:55.371Z,60.36
2019-01-31T23:41:55.395Z,60.17
2019-01-31T23:42:55.383Z,60.17
2019-01-31T23:43:55.374Z,60.17
2019-01-31T23:44:55.369Z,60.66
2019-01-31T23:45:55.364Z,61.44
2019-01-31T23:46:55.388Z,61.54
2019-01-31T23:47:55.376Z,61.34
2019-01-31T23:48:55.364Z,61.24
2019-01-31T23:49:55.364Z,61.80
2019-01-31T23:50:55.367Z,62.22
2019-01-31T23:51:55.365Z,62.29
2019-01-31T23:52:55.364Z,62.67
2019-01-31T23:53:55.361Z,63.26
2019-01-31T23:54:55.362Z,63.65
2019-01-31T23:55:55.364Z,63.75
2019-01-31T23:56:55.342Z,64.32
2019-01-31T23:57:55.342Z,64.62
2019-01-31T23:58:55.366Z,64.91
2019-01-31T23:59:55.332Z,64.81
